Time;durP1;ratioP1;P1;durP2;ratioP2;P2;SDS_P1;SDS_P2;PMS_P1;PMS_P2;Temp;Humidity;BMP_temperature;BMP_pressure;BME280_temperature;BME280_humidity;BME280_pressure;Samples;Min_cycle;Max_cycle;Signal;HPM_P1;HPM_P2
2022/04/18 00:01:21;;;;;;;9.10;8.20;;;7.40;1.00;;;;;;5103934;28;20520;-60
2022/04/18 00:03:47;;;;;;;9.30;7.93;;;;;;;;;;5110310;28;20218;-60
2022/04/18 00:06:35;;;;;;;9.43;8.40;;;7.40;1.00;;;;;;5101164;28;20182;-58
2022/04/18 00:09:01;;;;;;;10.13;8.87;;;7.30;1.00;;;;;;5104313;28;20487;-59
2022/04/18 00:11:27;;;;;;;12.10;9.20;;;7.30;1.00;;;;;;5098664;28;20498;-59
2022/04/18 00:13:52;;;;;;;10.17;9.10;;;7.30;1.00;;;;;;5105042;27;20498;-59
2022/04/18 00:16:27;;;;;;;10.73;8.33;;;7.20;1.00;;;;;;5101457;28;20190;-59
2022/04/18 00:18:53;;;;;;;10.03;9.10;;;7.20;1.00;;;;;;5105634;28;20715;-59
2022/04/18 00:21:21;;;;;;;10.13;9.13;;;7.20;1.00;;;;;;5103484;28;20566;-60
2022/04/18 00:23:47;;;;;;;13.87;10.70;;;7.30;1.00;;;;;;5100570;28;20190;-59
2022/04/18 00:26:22;;;;;;;11.70;10.50;;;7.30;1.00;;;;;;5103641;28;20447;-59
2022/04/18 00:28:47;;;;;;;14.17;10.33;;;;;;;;;;5100845;28;20194;-59
2022/04/18 00:31:19;;;;;;;9.43;8.53;;;7.20;1.00;;;;;;5098533;27;20999;-60
2022/04/18 00:33:45;;;;;;;10.87;9.83;;;7.20;1.00;;;;;;5107480;28;20558;-59
2022/04/18 00:36:22;;;;;;;11.53;10.33;;;7.20;1.00;;;;;;5103430;28;20533;-60
2022/04/18 00:38:48;;;;;;;13.47;11.10;;;7.20;1.00;;;;;;5108861;28;20189;-58
2022/04/18 00:41:26;;;;;;;13.37;11.97;;;7.20;1.00;;;;;;5104908;28;20466;-59
2022/04/18 00:43:52;;;;;;;11.30;10.10;;;7.20;1.00;;;;;;5095977;28;20198;-59
2022/04/18 00:46:19;;;;;;;10.83;9.70;;;7.10;1.00;;;;;;5094246;28;20452;-59
2022/04/18 00:48:45;;;;;;;11.93;10.47;;;7.10;1.00;;;;;;5109083;27;20460;-59
2022/04/18 00:51:23;;;;;;;13.63;11.97;;;7.10;1.00;;;;;;5108490;28;20444;-59
2022/04/18 00:53:52;;;;;;;13.50;11.67;;;7.10;1.00;;;;;;5102992;28;20484;-59
2022/04/18 00:56:21;;;;;;;13.97;11.97;;;7.10;1.00;;;;;;5099857;28;20452;-58
2022/04/18 00:58:48;;;;;;;13.70;12.33;;;7.20;1.00;;;;;;5098728;28;20452;-59
2022/04/18 01:01:15;;;;;;;13.30;12.00;;;7.20;1.00;;;;;;5100723;28;20527;-59
2022/04/18 01:03:43;;;;;;;15.17;12.53;;;7.20;1.00;;;;;;5105862;27;20471;-58
2022/04/18 01:06:27;;;;;;;14.23;12.47;;;7.10;1.00;;;;;;5100197;28;20459;-59
2022/04/18 01:08:52;;;;;;;13.03;11.70;;;7.00;1.00;;;;;;5106214;28;20468;-62
2022/04/18 01:11:35;;;;;;;17.90;12.80;;;7.00;1.00;;;;;;5099257;28;20470;-58
2022/04/18 01:14:02;;;;;;;13.07;11.77;;;7.00;1.00;;;;;;5093593;28;20214;-58
2022/04/18 01:16:28;;;;;;;14.43;12.60;;;6.80;1.00;;;;;;5103111;28;20440;-59
2022/04/18 01:18:56;;;;;;;13.03;11.73;;;;;;;;;;5110227;28;20458;-59
2022/04/18 01:21:27;;;;;;;14.87;13.53;;;6.70;1.00;;;;;;5109472;28;20188;-58
2022/04/18 01:23:54;;;;;;;19.97;13.70;;;6.80;1.00;;;;;;5102487;28;20440;-58
2022/04/18 01:29:10;;;;;;;13.27;11.97;;;6.60;1.00;;;;;;5107322;28;21030;-59
2022/04/18 01:31:38;;;;;;;12.63;11.30;;;6.70;1.00;;;;;;5102657;28;20452;-59
2022/04/18 01:34:05;;;;;;;13.90;12.50;;;6.70;1.00;;;;;;5105537;28;20292;-59
2022/04/18 01:36:32;;;;;;;14.20;12.23;;;6.70;1.00;;;;;;5106171;28;20964;-59
2022/04/18 01:38:58;;;;;;;14.73;11.63;;;6.70;1.00;;;;;;5097667;27;20452;-60
2022/04/18 01:41:24;;;;;;;12.27;11.07;;;6.70;1.00;;;;;;5106132;28;20440;-59
2022/04/18 01:43:50;;;;;;;13.80;11.90;;;6.60;1.00;;;;;;5098189;28;20544;-59
2022/04/18 01:46:20;;;;;;;14.33;11.07;;;6.70;1.00;;;;;;5103917;28;20488;-60
2022/04/18 01:48:51;;;;;;;13.60;11.80;;;6.60;1.00;;;;;;5104107;28;20916;-60
2022/04/18 01:51:33;;;;;;;13.80;10.87;;;6.50;1.00;;;;;;5109224;28;20452;-59
2022/04/18 01:53:58;;;;;;;13.27;11.77;;;6.40;1.00;;;;;;5102614;28;20751;-59
2022/04/18 01:56:30;;;;;;;12.93;11.57;;;6.40;1.00;;;;;;5099727;28;20539;-60
2022/04/18 01:58:55;;;;;;;14.10;12.10;;;6.40;1.00;;;;;;5100641;28;20208;-60
2022/04/18 02:01:27;;;;;;;14.30;12.87;;;6.40;1.00;;;;;;5103831;28;20907;-59
2022/04/18 02:03:53;;;;;;;12.17;11.00;;;6.40;1.00;;;;;;5101915;28;20700;-59
2022/04/18 02:06:29;;;;;;;13.67;12.27;;;6.40;1.00;;;;;;5105360;28;20520;-59
2022/04/18 02:08:54;;;;;;;13.13;11.83;;;6.30;1.00;;;;;;5105119;28;20443;-59
2022/04/18 02:11:20;;;;;;;13.50;12.10;;;6.30;1.00;;;;;;5105816;28;20451;-59
2022/04/18 02:13:46;;;;;;;13.70;12.30;;;;;;;;;;5105793;28;20209;-59
2022/04/18 02:16:15;;;;;;;12.97;11.57;;;6.40;1.00;;;;;;5105359;28;20200;-59
2022/04/18 02:18:40;;;;;;;12.40;11.20;;;6.30;1.00;;;;;;5096629;28;20527;-59
2022/04/18 02:24:35;;;;;;;12.10;10.80;;;6.20;1.00;;;;;;5068242;28;20196;-59
2022/04/18 02:27:01;;;;;;;13.60;12.20;;;6.20;1.00;;;;;;5102315;28;20530;-59
2022/04/18 02:29:26;;;;;;;14.97;11.20;;;6.10;1.00;;;;;;5109113;28;20557;-59
2022/04/18 02:35:11;;;;;;;13.43;12.13;;;6.20;1.00;;;;;;5022715;28;20223;-59
2022/04/18 02:37:37;;;;;;;14.27;12.83;;;6.10;1.00;;;;;;5085597;28;20449;-59
2022/04/18 02:40:05;;;;;;;15.77;12.13;;;6.10;1.00;;;;;;5110215;28;20200;-59
2022/04/18 02:42:30;;;;;;;12.37;11.13;;;6.10;1.00;;;;;;5107062;28;20184;-59
2022/04/18 02:44:56;;;;;;;13.10;11.77;;;;;;;;;;5107354;28;20940;-59
2022/04/18 02:47:22;;;;;;;16.50;11.77;;;6.10;1.00;;;;;;5115013;27;20193;-60
2022/04/18 02:49:50;;;;;;;12.87;11.57;;;6.00;1.00;;;;;;5106114;28;20445;-59
2022/04/18 02:52:16;;;;;;;12.57;11.30;;;6.00;1.00;;;;;;5107442;28;20636;-58
2022/04/18 02:54:42;;;;;;;13.40;12.10;;;6.00;1.00;;;;;;5108631;28;20885;-59
2022/04/18 02:57:28;;;;;;;14.77;11.00;;;5.90;1.00;;;;;;5094345;28;20492;-58
2022/04/18 02:59:53;;;;;;;13.03;10.80;;;5.90;1.00;;;;;;5101586;28;20701;-57
2022/04/18 03:02:19;;;;;;;12.40;10.93;;;5.90;1.00;;;;;;5092865;28;20479;-59
2022/04/18 03:04:44;;;;;;;13.67;11.30;;;5.90;1.00;;;;;;5099076;27;20297;-58
2022/04/18 03:07:10;;;;;;;13.70;11.30;;;5.70;1.00;;;;;;5099843;28;20269;-60
2022/04/18 03:09:36;;;;;;;12.37;11.10;;;5.90;1.00;;;;;;5112326;28;20194;-59
2022/04/18 03:12:06;;;;;;;13.47;11.17;;;5.90;1.00;;;;;;5111442;28;20189;-59
2022/04/18 03:14:32;;;;;;;13.10;10.93;;;5.90;1.00;;;;;;5101862;28;20597;-60
2022/04/18 03:16:58;;;;;;;11.10;9.97;;;5.80;1.00;;;;;;5112695;28;20535;-59
2022/04/18 03:19:24;;;;;;;13.70;10.57;;;5.80;1.00;;;;;;5107854;27;21610;-59
2022/04/18 03:21:52;;;;;;;12.03;10.83;;;5.80;1.00;;;;;;5098820;28;20444;-59
2022/04/18 03:24:19;;;;;;;15.67;10.50;;;5.80;1.00;;;;;;5103463;28;20466;-58
2022/04/18 03:26:51;;;;;;;12.10;10.90;;;5.70;1.00;;;;;;5106346;28;21038;-59
2022/04/18 03:29:17;;;;;;;12.70;11.50;;;;;;;;;;5105551;28;21001;-59
2022/04/18 03:32:11;;;;;;;13.80;10.93;;;5.60;1.00;;;;;;5111667;28;20443;-59
2022/04/18 03:34:37;;;;;;;13.40;11.70;;;5.50;1.00;;;;;;5101434;28;20471;-59
2022/04/18 03:39:55;;;;;;;11.97;10.70;;;5.40;1.00;;;;;;5102745;28;20674;-59
2022/04/18 03:42:32;;;;;;;13.17;11.50;;;5.40;1.00;;;;;;5106843;28;20929;-59
2022/04/18 03:45:04;;;;;;;11.73;10.53;;;5.40;1.00;;;;;;5110103;28;20462;-59
2022/04/18 03:47:50;;;;;;;12.23;10.83;;;5.50;1.00;;;;;;5100255;28;20447;-58
2022/04/18 03:50:15;;;;;;;13.57;11.63;;;5.40;1.00;;;;;;5110450;28;20471;-59
2022/04/18 03:52:41;;;;;;;12.23;11.23;;;5.40;1.00;;;;;;5094870;28;20532;-59
2022/04/18 03:55:07;;;;;;;15.33;11.50;;;5.40;1.00;;;;;;5098610;28;20203;-59
2022/04/18 03:57:32;;;;;;;13.47;12.07;;;5.40;1.00;;;;;;5099545;28;20619;-58
2022/04/18 03:59:58;;;;;;;12.23;11.03;;;5.50;1.00;;;;;;5097345;28;20333;-58
2022/04/18 04:02:23;;;;;;;12.33;10.90;;;5.50;1.00;;;;;;5096236;28;20209;-58
2022/04/18 04:04:49;;;;;;;11.80;10.60;;;5.40;1.00;;;;;;5110448;28;20254;-59
2022/04/18 04:07:23;;;;;;;13.17;11.77;;;5.40;1.00;;;;;;5110533;28;20194;-58
2022/04/18 04:09:49;;;;;;;15.03;11.57;;;5.40;1.00;;;;;;5098095;28;20590;-59
2022/04/18 04:12:15;;;;;;;11.57;10.47;;;;;;;;;;5110571;27;20467;-59
2022/04/18 04:14:40;;;;;;;12.33;11.23;;;5.50;1.00;;;;;;5111309;28;20294;-59
2022/04/18 04:17:06;;;;;;;14.23;12.83;;;5.50;1.00;;;;;;5095775;28;20436;-59
2022/04/18 04:19:31;;;;;;;13.20;11.90;;;5.50;1.00;;;;;;5109951;28;20194;-59
2022/04/18 04:22:01;;;;;;;12.53;11.23;;;5.50;1.00;;;;;;5109654;28;20242;-58
2022/04/18 04:24:26;;;;;;;13.03;11.70;;;5.40;1.00;;;;;;5092212;28;20190;-58
2022/04/18 04:26:52;;;;;;;16.13;12.63;;;5.40;1.00;;;;;;5095330;28;20460;-58
2022/04/18 04:29:18;;;;;;;16.73;12.50;;;;;;;;;;5104861;27;20194;-60
2022/04/18 04:32:29;;;;;;;13.57;12.17;;;3.00;1.00;;;;;;5094186;28;20550;-59
2022/04/18 04:34:55;;;;;;;15.50;11.93;;;;;;;;;;5076521;28;20467;-59
2022/04/18 04:37:20;;;;;;;12.80;11.50;;;5.40;1.00;;;;;;5104344;28;20951;-58
2022/04/18 04:39:46;;;;;;;15.03;12.50;;;5.40;1.00;;;;;;5106932;28;20447;-60
2022/04/18 04:42:12;;;;;;;13.87;12.47;;;5.50;1.00;;;;;;5100128;28;20186;-58
2022/04/18 04:44:38;;;;;;;13.23;12.10;;;5.50;1.00;;;;;;5106148;27;20191;-59
2022/04/18 04:47:04;;;;;;;13.83;12.40;;;5.40;1.00;;;;;;5102593;28;20443;-59
2022/04/18 04:49:30;;;;;;;13.73;12.43;;;5.50;1.00;;;;;;5101100;28;20186;-58
2022/04/18 04:52:08;;;;;;;14.37;12.73;;;5.60;1.00;;;;;;5098320;28;20528;-60
2022/04/18 04:54:35;;;;;;;14.23;12.77;;;5.60;1.00;;;;;;5101752;28;20216;-59
2022/04/18 04:57:01;;;;;;;14.27;12.87;;;5.70;1.00;;;;;;5106755;28;20492;-58
2022/04/18 04:59:26;;;;;;;14.47;12.33;;;5.70;1.00;;;;;;5103011;28;20459;-58
2022/04/18 05:02:30;;;;;;;15.10;12.67;;;5.70;1.00;;;;;;5100293;27;20985;-58
2022/04/18 05:04:56;;;;;;;13.90;12.60;;;5.80;1.00;;;;;;5025561;28;20742;-58
2022/04/18 05:07:21;;;;;;;13.87;12.17;;;5.80;1.00;;;;;;5026755;28;20524;-59
2022/04/18 05:09:47;;;;;;;13.73;12.33;;;5.90;1.00;;;;;;5055960;28;20191;-59
2022/04/18 05:12:21;;;;;;;15.83;11.80;;;5.90;1.00;;;;;;5104853;28;20238;-60
2022/04/18 05:14:47;;;;;;;14.03;12.50;;;6.00;1.00;;;;;;5098368;28;20598;-59
2022/04/18 05:17:12;;;;;;;13.20;11.63;;;6.10;1.00;;;;;;5092008;28;20455;-59
2022/04/18 05:19:38;;;;;;;15.63;11.83;;;6.20;1.00;;;;;;5105138;27;20182;-59
2022/04/18 05:22:04;;;;;;;12.63;11.33;;;6.30;1.00;;;;;;5108017;28;20693;-59
2022/04/18 05:24:29;;;;;;;13.33;12.00;;;6.30;1.00;;;;;;5106269;28;20181;-58
2022/04/18 05:27:30;;;;;;;12.13;10.83;;;6.40;1.00;;;;;;5106761;28;20178;-59
2022/04/18 05:29:56;;;;;;;13.13;11.60;;;6.50;1.00;;;;;;5045792;28;20195;-60
2022/04/18 05:32:22;;;;;;;13.27;11.50;;;;;;;;;;5090570;28;20452;-59
2022/04/18 05:34:48;;;;;;;12.67;11.37;;;6.60;1.00;;;;;;5107001;28;20213;-60
2022/04/18 05:37:22;;;;;;;12.20;11.00;;;6.80;1.00;;;;;;5099065;27;20447;-59
2022/04/18 05:39:48;;;;;;;13.30;11.90;;;6.90;1.00;;;;;;5100859;28;20181;-59
2022/04/18 05:42:16;;;;;;;13.07;11.60;;;7.00;1.00;;;;;;5107173;28;20543;-59
2022/04/18 05:44:42;;;;;;;14.00;12.50;;;7.20;1.00;;;;;;5094805;28;20632;-59
2022/04/18 05:47:07;;;;;;;13.50;12.10;;;7.20;1.00;;;;;;5108054;28;20443;-59
2022/04/18 05:49:33;;;;;;;14.30;12.90;;;7.10;1.00;;;;;;5107423;28;20182;-58
2022/04/18 05:52:01;;;;;;;13.43;12.03;;;7.20;1.00;;;;;;5105606;28;20209;-59
2022/04/18 05:54:27;;;;;;;13.67;12.13;;;7.30;1.00;;;;;;5103551;28;20210;-59
2022/04/18 06:00:15;;;;;;;13.60;12.20;;;7.50;1.00;;;;;;5043810;28;20526;-59
2022/04/18 06:02:40;;;;;;;14.17;12.23;;;7.70;1.00;;;;;;5091193;28;20451;-59
2022/04/18 06:05:06;;;;;;;12.77;11.50;;;7.70;1.00;;;;;;5097248;28;20524;-59
2022/04/18 06:07:32;;;;;;;13.37;11.93;;;7.90;1.00;;;;;;5107520;28;20259;-59
2022/04/18 06:09:58;;;;;;;13.80;11.63;;;7.90;1.00;;;;;;5094680;28;20189;-58
2022/04/18 06:12:44;;;;;;;14.43;12.93;;;8.00;1.00;;;;;;5100186;28;20452;-59
2022/04/18 06:15:09;;;;;;;12.67;11.37;;;8.00;1.00;;;;;;5101017;28;20252;-58
2022/04/18 06:17:35;;;;;;;14.03;12.23;;;8.20;1.00;;;;;;5107090;28;21182;-59
2022/04/18 06:20:02;;;;;;;12.63;11.33;;;8.40;1.00;;;;;;5110286;28;20928;-59
2022/04/18 06:25:13;;;;;;;14.70;13.20;;;8.80;1.00;;;;;;5089881;28;20808;-59
2022/04/18 06:30:27;;;;;;;11.43;10.33;;;9.10;1.00;;;;;;5085951;28;20697;-59
2022/04/18 06:32:53;;;;;;;12.17;9.60;;;;;;;;;;5100334;28;20476;-59
2022/04/18 06:35:19;;;;;;;11.80;10.70;;;9.60;1.00;;;;;;5089657;28;20241;-59
2022/04/18 06:37:44;;;;;;;10.13;9.07;;;9.60;1.00;;;;;;5090909;28;20448;-59
2022/04/18 06:40:10;;;;;;;10.60;9.53;;;9.60;1.00;;;;;;5093813;28;20193;-60
2022/04/18 06:42:56;;;;;;;10.03;8.67;;;9.60;1.00;;;;;;5107775;28;20200;-59
2022/04/18 06:45:21;;;;;;;10.77;9.77;;;9.60;1.00;;;;;;5101023;28;20231;-59
2022/04/18 06:47:47;;;;;;;12.43;10.93;;;9.50;1.00;;;;;;5094170;28;20444;-60
2022/04/18 06:50:13;;;;;;;11.60;10.40;;;9.50;1.00;;;;;;5108773;28;20298;-60
2022/04/18 06:58:37;;;;;;;12.93;11.60;;;12.00;1.00;;;;;;5091618;28;20534;-60
2022/04/18 07:01:03;;;;;;;12.23;10.33;;;10.00;1.00;;;;;;5096247;28;20532;-59
2022/04/18 07:03:28;;;;;;;11.43;10.30;;;10.20;1.00;;;;;;5096802;28;20183;-59
2022/04/18 07:05:54;;;;;;;10.53;9.30;;;10.40;1.00;;;;;;5093031;28;20201;-59
2022/04/18 07:08:19;;;;;;;11.10;10.00;;;10.40;1.00;;;;;;5093387;28;20320;-60
2022/04/18 07:10:45;;;;;;;11.57;10.47;;;10.60;1.00;;;;;;5092888;28;20555;-60
2022/04/18 07:13:39;;;;;;;10.63;9.57;;;10.70;1.00;;;;;;5106318;28;20186;-61
2022/04/18 07:16:07;;;;;;;9.73;8.80;;;10.60;1.00;;;;;;5091129;28;20272;-61
2022/04/18 07:18:33;;;;;;;10.43;9.30;;;10.70;1.00;;;;;;5098442;28;20920;-59
2022/04/18 07:20:58;;;;;;;9.10;8.20;;;10.90;1.00;;;;;;5104362;28;20802;-59
2022/04/18 07:23:24;;;;;;;13.93;9.67;;;10.90;1.00;;;;;;5104250;28;20450;-60
2022/04/18 07:25:49;;;;;;;10.73;8.70;;;11.00;1.00;;;;;;5100224;28;20198;-60
2022/04/18 07:28:15;;;;;;;11.00;9.43;;;10.90;1.00;;;;;;5097704;28;20243;-60
2022/04/18 07:30:40;;;;;;;9.53;8.30;;;10.90;1.00;;;;;;5101410;28;20232;-59
2022/04/18 07:33:06;;;;;;;12.70;8.73;;;;;;;;;;5103531;28;20336;-58
2022/04/18 07:35:33;;;;;;;9.93;8.70;;;11.40;1.00;;;;;;5104841;27;20301;-60
2022/04/18 07:41:04;;;;;;;8.20;7.40;;;11.80;1.00;;;;;;5108955;28;20508;-59
2022/04/18 07:46:36;;;;;;;9.47;8.50;;;12.20;1.00;;;;;;5096553;28;20444;-59
2022/04/18 07:49:01;;;;;;;9.23;8.33;;;12.30;1.00;;;;;;5103459;28;20441;-59
2022/04/18 07:51:36;;;;;;;11.70;8.17;;;12.00;1.00;;;;;;5103668;28;20191;-60
2022/04/18 07:54:05;;;;;;;9.90;8.90;;;12.00;1.00;;;;;;5103484;28;20227;-59
2022/04/18 07:56:31;;;;;;;9.40;8.40;;;12.10;1.00;;;;;;5081633;28;21092;-59
2022/04/18 07:58:56;;;;;;;9.00;8.10;;;12.00;1.00;;;;;;5104239;27;20964;-60
2022/04/18 08:01:22;;;;;;;9.97;8.97;;;12.10;1.00;;;;;;5096400;28;20436;-60
2022/04/18 08:03:48;;;;;;;9.77;8.67;;;12.30;1.00;;;;;;5099994;28;20190;-60
2022/04/18 08:06:16;;;;;;;9.40;8.50;;;12.50;1.00;;;;;;5101813;28;20571;-62
2022/04/18 08:08:43;;;;;;;9.57;8.13;;;12.70;1.00;;;;;;5101500;28;20471;-59
2022/04/18 08:11:11;;;;;;;9.70;8.67;;;13.10;1.00;;;;;;5097224;28;20494;-60
2022/04/18 08:13:41;;;;;;;9.70;7.40;;;13.20;1.00;;;;;;5102919;28;20460;-59
2022/04/18 08:16:08;;;;;;;10.33;8.83;;;13.20;1.00;;;;;;5098830;28;20774;-59
2022/04/18 08:18:38;;;;;;;10.10;9.10;;;13.30;1.00;;;;;;5103277;28;20475;-59
2022/04/18 08:21:07;;;;;;;11.93;9.30;;;13.20;1.00;;;;;;5102053;28;20455;-60
2022/04/18 08:23:33;;;;;;;9.17;8.27;;;13.30;1.00;;;;;;5104822;28;20532;-60
2022/04/18 08:25:59;;;;;;;10.33;8.57;;;13.30;1.00;;;;;;5100788;28;20468;-60
2022/04/18 08:28:26;;;;;;;8.70;7.80;;;13.20;1.00;;;;;;5105571;28;20522;-60
2022/04/18 08:30:53;;;;;;;9.30;8.30;;;13.20;1.00;;;;;;5099349;28;20581;-60
2022/04/18 08:33:21;;;;;;;10.90;8.27;;;13.60;1.00;;;;;;5085107;28;20466;-59
2022/04/18 08:35:47;;;;;;;8.10;7.10;;;14.10;1.00;;;;;;5099120;28;20834;-60
2022/04/18 08:38:13;;;;;;;8.83;8.03;;;14.30;1.00;;;;;;5101096;28;20532;-60
2022/04/18 08:40:42;;;;;;;8.23;7.43;;;14.10;1.00;;;;;;5101562;28;20531;-59
2022/04/18 08:43:08;;;;;;;5.23;4.73;;;13.80;1.00;;;;;;5101319;28;20243;-59
2022/04/18 08:45:35;;;;;;;10.20;6.80;;;13.80;1.00;;;;;;5098375;28;20531;-60
2022/04/18 08:53:31;;;;;;;6.00;5.40;;;13.90;1.00;;;;;;5099509;28;20513;-60
2022/04/18 08:55:58;;;;;;;6.57;5.97;;;14.20;1.00;;;;;;5107819;28;20448;-59
2022/04/18 08:58:26;;;;;;;5.33;4.83;;;14.40;1.00;;;;;;5106165;28;21022;-60
2022/04/18 09:00:53;;;;;;;6.83;5.23;;;14.60;1.00;;;;;;5094185;28;20530;-59
2022/04/18 09:03:19;;;;;;;5.67;5.13;;;14.60;1.00;;;;;;5108220;28;20782;-58
2022/04/18 09:05:46;;;;;;;5.77;5.17;;;14.70;1.00;;;;;;5099591;28;21126;-60
2022/04/18 09:08:12;;;;;;;4.83;4.43;;;;;;;;;;5099398;28;20448;-59
2022/04/18 09:10:40;;;;;;;6.10;4.60;;;14.80;1.00;;;;;;5093384;28;20505;-59
2022/04/18 09:13:07;;;;;;;5.63;4.83;;;15.10;1.00;;;;;;5094274;28;20443;-58
2022/04/18 09:15:40;;;;;;;9.80;6.90;;;15.30;1.00;;;;;;5105057;28;21083;-60
2022/04/18 09:18:07;;;;;;;5.60;5.00;;;15.30;1.00;;;;;;5105773;28;20953;-60
2022/04/18 09:20:41;;;;;;;4.80;4.27;;;15.60;1.00;;;;;;5096345;28;20452;-59
2022/04/18 09:23:22;;;;;;;6.23;5.00;;;15.70;1.00;;;;;;5094581;28;20444;-59
2022/04/18 09:25:53;;;;;;;6.10;4.77;;;15.70;1.00;;;;;;5103358;28;22155;-59
2022/04/18 09:28:25;;;;;;;4.67;4.17;;;15.50;1.00;;;;;;5109574;28;20443;-59
2022/04/18 09:31:00;;;;;;;6.17;4.73;;;15.40;1.00;;;;;;5102144;28;20483;-58
2022/04/18 09:33:30;;;;;;;5.80;4.60;;;15.20;1.00;;;;;;5102069;28;20451;-59
2022/04/18 09:36:07;;;;;;;5.60;5.00;;;15.40;1.00;;;;;;5101694;28;20874;-58
2022/04/18 09:38:56;;;;;;;6.20;5.60;;;15.40;1.00;;;;;;5101930;28;20439;-59
2022/04/18 09:41:29;;;;;;;6.57;5.57;;;15.60;1.00;;;;;;5098762;28;20450;-59
2022/04/18 09:43:56;;;;;;;5.80;5.30;;;15.20;1.00;;;;;;5105454;28;21092;-59
2022/04/18 09:46:22;;;;;;;6.27;5.53;;;15.50;1.00;;;;;;5106149;28;20452;-60
2022/04/18 09:48:49;;;;;;;6.90;6.20;;;15.00;1.00;;;;;;5108252;28;20873;-60
2022/04/18 09:51:25;;;;;;;6.70;5.87;;;;;;;;;;5108311;28;20463;-58
2022/04/18 09:53:54;;;;;;;5.83;5.23;;;15.20;1.00;;;;;;5102457;28;20467;-59
2022/04/18 09:56:22;;;;;;;6.70;5.73;;;15.40;1.00;;;;;;5107528;28;20505;-59
2022/04/18 09:58:48;;;;;;;11.17;7.43;;;15.90;1.00;;;;;;5101440;28;20878;-59
2022/04/18 10:01:14;;;;;;;7.40;6.17;;;16.00;1.00;;;;;;5098947;28;20448;-59
2022/04/18 10:03:42;;;;;;;8.50;5.93;;;16.10;1.00;;;;;;5104205;28;20445;-59
2022/04/18 10:06:08;;;;;;;7.47;6.70;;;16.20;1.00;;;;;;5096198;28;20456;-59
2022/04/18 10:08:35;;;;;;;7.20;6.47;;;15.90;1.00;;;;;;5107868;28;20561;-60
2022/04/18 10:11:04;;;;;;;9.90;7.63;;;15.80;1.00;;;;;;5099839;28;20440;-62
2022/04/18 10:13:31;;;;;;;8.30;7.60;;;15.80;1.00;;;;;;5098657;28;20443;-59
2022/04/18 10:15:58;;;;;;;6.90;6.23;;;15.70;1.00;;;;;;5096756;28;20454;-59
2022/04/18 10:18:25;;;;;;;6.97;6.30;;;15.90;1.00;;;;;;5096324;28;20440;-59
2022/04/18 10:21:06;;;;;;;6.70;6.10;;;16.10;1.00;;;;;;5105815;28;20432;-58
2022/04/18 10:23:47;;;;;;;6.50;5.90;;;16.30;1.00;;;;;;5098554;28;20440;-59
2022/04/18 10:26:51;;;;;;;6.37;5.63;;;16.50;1.00;;;;;;5095048;28;20489;-59
2022/04/18 10:29:40;;;;;;;7.50;5.60;;;16.60;1.00;;;;;;5096375;28;20448;-61
2022/04/18 10:32:07;;;;;;;8.40;6.40;;;16.90;1.00;;;;;;5104178;28;20509;-60
2022/04/18 10:34:35;;;;;;;9.70;6.23;;;16.90;1.00;;;;;;5094491;28;20468;-59
2022/04/18 10:37:02;;;;;;;6.27;5.77;;;16.20;1.00;;;;;;5089759;28;20453;-59
2022/04/18 10:39:36;;;;;;;6.20;5.60;;;16.00;1.00;;;;;;5099922;28;20450;-60
2022/04/18 10:42:22;;;;;;;5.17;4.60;;;16.00;1.00;;;;;;5096727;28;20532;-59
2022/04/18 10:45:07;;;;;;;6.83;4.60;;;15.70;1.00;;;;;;5092992;28;20552;-59
2022/04/18 10:47:54;;;;;;;4.97;4.47;;;15.80;1.00;;;;;;5100033;28;20498;-59
2022/04/18 10:50:22;;;;;;;5.17;4.33;;;15.80;1.00;;;;;;5101468;28;20496;-59
2022/04/18 10:53:13;;;;;;;5.90;4.30;;;15.30;1.00;;;;;;5100740;28;20466;-59
2022/04/18 10:55:41;;;;;;;4.83;4.37;;;15.10;1.00;;;;;;5092426;28;20464;-59
2022/04/18 10:58:20;;;;;;;3.40;3.10;;;15.60;1.00;;;;;;5102714;28;20473;-60
2022/04/18 11:00:50;;;;;;;6.03;2.90;;;14.30;1.00;;;;;;5102429;28;20440;-59
2022/04/18 11:03:35;;;;;;;4.00;2.83;;;15.90;1.00;;;;;;5104111;28;20435;-60
2022/04/18 11:06:16;;;;;;;3.10;2.80;;;16.00;1.00;;;;;;5104416;28;20524;-60
2022/04/18 11:08:57;;;;;;;4.33;3.60;;;16.30;1.00;;;;;;5105415;28;20518;-59
2022/04/18 11:11:22;;;;;;;4.50;3.77;;;17.10;1.00;;;;;;5104046;28;20468;-58
2022/04/18 11:13:49;;;;;;;3.77;3.37;;;17.20;1.00;;;;;;5098500;28;20496;-59
2022/04/18 11:16:26;;;;;;;4.37;3.67;;;17.20;1.00;;;;;;5092973;28;20183;-59
2022/04/18 11:19:29;;;;;;;4.80;3.13;;;17.30;1.00;;;;;;5091618;28;20502;-60
2022/04/18 11:21:58;;;;;;;2.97;2.67;;;17.80;1.00;;;;;;5028959;28;20455;-59
2022/04/18 11:24:49;;;;;;;3.10;2.50;;;17.80;1.00;;;;;;5082137;28;20436;-58
2022/04/18 11:27:16;;;;;;;3.23;2.80;;;17.60;1.00;;;;;;5098032;28;20439;-59
2022/04/18 11:29:52;;;;;;;4.13;2.83;;;17.20;1.00;;;;;;5101687;28;20446;-58
2022/04/18 11:32:20;;;;;;;5.60;2.33;;;16.60;1.00;;;;;;5097809;28;20450;-60
2022/04/18 11:34:48;;;;;;;3.00;2.63;;;16.00;1.00;;;;;;5093029;28;20497;-58
2022/04/18 11:37:45;;;;;;;3.13;2.03;;;15.70;1.00;;;;;;5092892;28;20440;-59
2022/04/18 11:40:16;;;;;;;2.77;2.23;;;16.50;1.00;;;;;;5111066;28;20501;-59
2022/04/18 11:42:43;;;;;;;2.43;2.23;;;17.20;1.00;;;;;;5102308;28;20528;-60
2022/04/18 11:45:10;;;;;;;2.93;2.30;;;17.60;1.00;;;;;;5102105;28;20444;-58
2022/04/18 11:47:40;;;;;;;1.90;1.80;;;17.60;1.00;;;;;;5113302;28;20484;-59
2022/04/18 11:50:07;;;;;;;3.27;2.60;;;17.60;1.00;;;;;;5112917;28;20471;-59
2022/04/18 11:52:38;;;;;;;2.60;2.40;;;17.70;1.00;;;;;;5096736;28;20942;-60
2022/04/18 11:55:04;;;;;;;2.60;2.40;;;18.10;1.00;;;;;;5113047;27;20470;-59
2022/04/18 11:57:36;;;;;;;3.70;2.33;;;18.30;1.00;;;;;;5093141;28;20432;-60
2022/04/18 12:00:08;;;;;;;2.53;2.20;;;18.20;1.00;;;;;;5097788;28;20273;-59
2022/04/18 12:08:05;;;;;;;2.80;2.60;;;17.70;1.00;;;;;;5110837;28;20493;-60
2022/04/18 12:10:35;;;;;;;2.70;2.50;;;17.90;1.00;;;;;;5099673;28;21222;-60
2022/04/18 12:13:07;;;;;;;2.53;1.83;;;18.10;1.00;;;;;;5092603;28;20527;-60
2022/04/18 12:15:33;;;;;;;2.20;1.87;;;17.50;1.00;;;;;;5092131;28;20468;-58
2022/04/18 12:18:13;;;;;;;2.17;1.80;;;16.70;1.00;;;;;;5092202;28;20444;-60
2022/04/18 12:20:44;;;;;;;3.10;2.17;;;16.60;1.00;;;;;;5091926;28;20425;-58
2022/04/18 12:23:16;;;;;;;1.83;1.60;;;16.50;1.00;;;;;;5111231;28;20881;-59
2022/04/18 12:25:45;;;;;;;1.87;1.77;;;17.00;1.00;;;;;;5112098;28;20442;-59
2022/04/18 12:28:11;;;;;;;1.53;1.40;;;16.80;1.00;;;;;;5111994;28;20444;-59
2022/04/18 12:30:37;;;;;;;2.00;1.70;;;17.70;1.00;;;;;;5110096;28;20439;-60
2022/04/18 12:33:20;;;;;;;2.03;1.83;;;17.50;1.00;;;;;;5098640;28;20475;-59
2022/04/18 12:35:48;;;;;;;2.43;2.03;;;17.20;1.00;;;;;;5091519;28;20252;-59
2022/04/18 12:38:15;;;;;;;3.53;1.87;;;16.80;1.00;;;;;;5091596;28;20444;-59
2022/04/18 12:40:52;;;;;;;2.33;2.13;;;16.70;1.00;;;;;;5091313;28;20901;-60
2022/04/18 12:43:18;;;;;;;1.87;1.60;;;16.90;1.00;;;;;;5091287;28;20425;-58
2022/04/18 12:45:50;;;;;;;2.20;1.60;;;17.00;1.00;;;;;;5091489;28;20863;-59
2022/04/18 12:48:21;;;;;;;1.67;1.57;;;17.20;1.00;;;;;;5091351;28;20492;-58
2022/04/18 12:50:47;;;;;;;2.20;1.53;;;17.10;1.00;;;;;;5094114;28;20442;-59
2022/04/18 12:53:12;;;;;;;2.43;1.63;;;17.10;1.00;;;;;;5111410;28;20436;-59
2022/04/18 12:55:38;;;;;;;2.43;1.57;;;17.00;1.00;;;;;;5104182;28;21165;-59
2022/04/18 12:58:21;;;;;;;2.90;1.77;;;17.30;1.00;;;;;;5091198;28;20562;-59
2022/04/18 13:00:49;;;;;;;1.90;1.70;;;17.20;1.00;;;;;;5090937;28;20516;-59
2022/04/18 13:03:17;;;;;;;3.13;1.90;;;13.30;1.00;;;;;;5099630;28;20536;-59
2022/04/18 13:05:47;;;;;;;2.60;1.93;;;17.30;1.00;;;;;;5102010;28;21942;-59
2022/04/18 13:08:16;;;;;;;2.50;2.27;;;17.30;1.00;;;;;;5091003;28;20540;-59
2022/04/18 13:10:43;;;;;;;2.50;1.73;;;17.60;1.00;;;;;;5108069;28;20523;-59
2022/04/18 13:13:19;;;;;;;2.10;1.87;;;17.30;1.00;;;;;;5101323;28;20464;-58
2022/04/18 13:15:46;;;;;;;1.97;1.77;;;17.10;1.00;;;;;;5092336;28;20464;-59
2022/04/18 13:18:24;;;;;;;3.10;2.43;;;17.00;1.00;;;;;;5090683;28;20516;-58
2022/04/18 13:20:49;;;;;;;1.93;1.83;;;16.90;1.00;;;;;;5110536;28;20443;-60
2022/04/18 13:23:15;;;;;;;2.33;2.13;;;17.10;1.00;;;;;;5102356;28;20441;-59
2022/04/18 13:25:41;;;;;;;2.97;2.33;;;17.20;1.00;;;;;;5104364;28;20712;-59
2022/04/18 13:28:09;;;;;;;3.93;2.37;;;17.40;1.00;;;;;;5091990;28;20244;-58
2022/04/18 13:30:37;;;;;;;2.83;2.10;;;17.40;1.00;;;;;;5091628;28;20590;-59
2022/04/18 13:33:05;;;;;;;2.77;2.50;;;17.40;1.00;;;;;;5092637;28;20949;-60
2022/04/18 13:36:30;;;;;;;3.00;2.07;;;17.10;1.00;;;;;;5109618;28;20468;-59
2022/04/18 13:38:20;;;;;;;4.20;2.37;;;17.10;1.00;;;;;;5110635;28;20435;-60
2022/04/18 13:40:45;;;;;;;3.70;1.73;;;17.10;1.00;;;;;;5111153;28;20519;-59
2022/04/18 13:43:11;;;;;;;2.47;2.23;;;17.10;1.00;;;;;;5102373;28;20265;-59
2022/04/18 13:45:36;;;;;;;1.90;1.80;;;16.70;1.00;;;;;;5090522;28;20275;-59
2022/04/18 13:48:02;;;;;;;4.03;2.40;;;16.40;1.00;;;;;;5089885;28;20869;-59
2022/04/18 13:50:28;;;;;;;3.93;2.87;;;16.50;1.00;;;;;;5090502;28;20191;-59
2022/04/18 13:52:53;;;;;;;2.87;2.60;;;16.70;1.00;;;;;;5092073;28;20671;-58